Terminal Aerodrome Forecast
Issued by NWS Louisville, KY

Home | Current Version | Previous Version | Text Only | Print | Product List | Glossary On
Versions: 1 2 3 4 5 6 7 8 9 10 11 12 13 14 15 16 17 18
055
FTUS43 KLMK 192320
TAFBWG
TAF
KBWG 192320Z 2000/2024 10004KT 5SM -RA BR OVC007
     FM200400 22006KT 2SM RA BR OVC004
     FM201300 21006KT 5SM BR BKN010
     FM201600 20008KT P6SM BKN035=

USA.gov is the U.S. government's official web portal to all federal, state and local government web resources and services.